createdAt,value
2023-01-22T00:01:08.708Z,76.97
2023-01-22T00:03:11.526Z,76.86
2023-01-22T00:05:14.283Z,76.52
2023-01-22T00:07:17.074Z,77.23
2023-01-22T00:09:22.277Z,77.02
2023-01-22T00:11:25.087Z,76.48
2023-01-22T00:13:29.459Z,76.86
2023-01-22T00:15:32.421Z,77.06
2023-01-22T00:17:35.264Z,76.63
2023-01-22T00:19:38.204Z,76.36
2023-01-22T00:21:40.992Z,76.45
2023-01-22T00:23:43.843Z,76.59
2023-01-22T00:25:47.227Z,77.36
2023-01-22T00:27:50.001Z,76.72
2023-01-22T00:29:54.122Z,77.13
2023-01-22T00:31:57.267Z,77.83
2023-01-22T00:34:00.029Z,77.56
2023-01-22T00:36:05.865Z,77.72
2023-01-22T00:38:08.709Z,77.73
2023-01-22T00:40:12.995Z,77.59
2023-01-22T00:42:15.911Z,77.53
2023-01-22T00:44:18.795Z,77.78
2023-01-22T00:46:23.003Z,77.22
2023-01-22T00:48:25.913Z,77.42
2023-01-22T00:50:29.168Z,76.92
2023-01-22T00:52:32.168Z,76.45
2023-01-22T00:54:35.145Z,76.54
2023-01-22T00:56:37.961Z,76.58
2023-01-22T00:58:41.078Z,76.47
2023-01-22T01:00:44.576Z,76.64
2023-01-22T01:03:06.371Z,76.61
2023-01-22T01:05:09.442Z,76.25
2023-01-22T01:07:12.473Z,76.60
2023-01-22T01:09:15.362Z,76.57
2023-01-22T01:11:21.750Z,76.67
2023-01-22T01:13:25.437Z,76.94
2023-01-22T01:15:28.825Z,76.99
2023-01-22T01:17:31.695Z,77.21
2023-01-22T01:19:35.977Z,77.04
2023-01-22T01:21:39.761Z,76.27
2023-01-22T01:23:43.630Z,76.37
2023-01-22T01:25:46.387Z,76.60
2023-01-22T01:27:49.258Z,76.73
2023-01-22T01:29:53.191Z,76.76
2023-01-22T01:31:57.753Z,76.74
2023-01-22T01:34:00.706Z,76.72
2023-01-22T01:36:07.316Z,76.79
2023-01-22T01:38:10.396Z,76.64
2023-01-22T01:40:14.048Z,76.48
2023-01-22T01:42:24.143Z,76.00
2023-01-22T01:44:27.712Z,76.22
2023-01-22T01:46:30.661Z,76.88
2023-01-22T01:48:37.762Z,76.66
2023-01-22T01:50:43.003Z,76.81
2023-01-22T01:52:47.325Z,77.27
2023-01-22T01:54:53.798Z,77.01
2023-01-22T01:57:02.770Z,76.68
2023-01-22T01:59:09.540Z,76.53
2023-01-22T02:01:14.826Z,76.33
2023-01-22T02:03:18.127Z,76.73
2023-01-22T02:05:22.062Z,77.01
2023-01-22T02:07:25.028Z,76.92
2023-01-22T02:09:29.534Z,76.61
2023-01-22T02:11:33.716Z,76.56
2023-01-22T02:13:38.547Z,76.16
2023-01-22T02:15:41.850Z,76.42
2023-01-22T02:17:44.667Z,76.26
2023-01-22T02:19:48.194Z,76.26
2023-01-22T02:21:52.304Z,76.16
2023-01-22T02:23:55.429Z,76.36
2023-01-22T02:25:59.155Z,76.25
2023-01-22T02:28:02.108Z,76.58
2023-01-22T02:30:05.661Z,76.66
2023-01-22T02:32:08.755Z,76.09
2023-01-22T02:34:12.906Z,76.15
2023-01-22T02:36:16.171Z,75.66
2023-01-22T02:38:20.305Z,76.06
2023-01-22T02:40:23.519Z,76.33
2023-01-22T02:42:27.978Z,76.85
2023-01-22T02:44:31.228Z,77.14
2023-01-22T02:46:34.283Z,76.32
2023-01-22T02:48:37.197Z,76.35
2023-01-22T02:50:39.981Z,75.98
2023-01-22T02:52:43.295Z,76.19
2023-01-22T02:54:47.400Z,75.74
2023-01-22T02:56:50.158Z,75.67
2023-01-22T02:58:53.018Z,76.15
2023-01-22T03:00:56.259Z,75.65
2023-01-22T03:02:59.185Z,75.63
2023-01-22T03:05:04.736Z,75.89
2023-01-22T03:07:07.574Z,74.89
2023-01-22T03:09:12.664Z,75.35
2023-01-22T03:11:17.859Z,75.19
2023-01-22T03:13:38.040Z,75.20
2023-01-22T03:15:59.182Z,75.00
2023-01-22T03:18:19.982Z,75.00
2023-01-22T03:20:40.483Z,74.98
2023-01-22T03:22:43.264Z,75.04
2023-01-22T03:24:50.328Z,75.26
2023-01-22T03:26:54.643Z,75.61
2023-01-22T03:28:57.467Z,75.97
2023-01-22T03:31:00.322Z,75.02
2023-01-22T03:33:03.271Z,75.06
2023-01-22T03:35:06.645Z,75.42
2023-01-22T03:37:22.720Z,75.40
2023-01-22T03:39:28.782Z,75.24
2023-01-22T03:41:31.619Z,74.65
2023-01-22T03:43:36.116Z,74.73
2023-01-22T03:45:42.316Z,75.31
2023-01-22T03:47:48.493Z,75.15
2023-01-22T03:49:58.615Z,74.77
2023-01-22T03:52:01.467Z,75.27
2023-01-22T03:54:04.501Z,75.25
2023-01-22T03:56:09.486Z,74.80
2023-01-22T03:58:13.236Z,74.51
2023-01-22T04:00:18.551Z,74.46
2023-01-22T04:02:21.543Z,75.40
2023-01-22T04:04:39.587Z,75.66
2023-01-22T04:06:42.490Z,74.99
2023-01-22T04:08:47.397Z,74.89
2023-01-22T04:10:50.256Z,75.24
2023-01-22T04:12:53.219Z,75.49
2023-01-22T04:14:58.306Z,75.21
2023-01-22T04:17:03.194Z,75.31
2023-01-22T04:19:16.595Z,75.37
2023-01-22T04:21:41.894Z,75.69
2023-01-22T04:23:46.691Z,75.47
2023-01-22T04:25:50.315Z,75.44
2023-01-22T04:27:53.461Z,75.48
2023-01-22T04:29:57.925Z,75.79
2023-01-22T04:32:02.129Z,75.24
2023-01-22T04:34:23.632Z,75.01
2023-01-22T04:36:55.452Z,74.74
2023-01-22T04:38:58.741Z,74.90
2023-01-22T04:41:01.566Z,75.05
2023-01-22T04:43:05.697Z,74.84
2023-01-22T04:45:10.391Z,75.18
2023-01-22T04:47:16.862Z,75.52
2023-01-22T04:49:21.147Z,75.14
2023-01-22T04:51:26.112Z,75.30
2023-01-22T04:53:30.003Z,75.39
2023-01-22T04:55:33.085Z,75.50
2023-01-22T04:57:39.536Z,75.91
2023-01-22T04:59:42.457Z,75.28
2023-01-22T05:01:45.378Z,75.75
2023-01-22T05:03:49.559Z,76.21
2023-01-22T05:05:52.345Z,75.21
2023-01-22T05:07:55.480Z,75.51
2023-01-22T05:09:58.624Z,75.54
2023-01-22T05:12:02.074Z,75.48
2023-01-22T05:14:10.626Z,76.09
2023-01-22T05:16:14.193Z,75.83
2023-01-22T05:18:17.034Z,75.81
2023-01-22T05:20:28.210Z,75.19
2023-01-22T05:22:30.982Z,75.61
2023-01-22T05:24:34.721Z,75.40
2023-01-22T05:26:37.701Z,75.27
2023-01-22T05:28:46.644Z,75.63
2023-01-22T05:31:05.948Z,75.47
2023-01-22T05:33:23.559Z,75.59
2023-01-22T05:35:28.012Z,75.65
2023-01-22T05:37:32.564Z,75.28
2023-01-22T05:39:36.286Z,75.93
2023-01-22T05:41:41.485Z,75.99
2023-01-22T05:43:44.573Z,75.23
2023-01-22T05:45:53.483Z,74.88
2023-01-22T05:48:17.926Z,75.44
2023-01-22T05:50:35.222Z,75.86
2023-01-22T05:52:44.284Z,75.72
2023-01-22T05:54:47.266Z,75.38
2023-01-22T05:56:50.100Z,75.60
2023-01-22T05:58:53.433Z,75.02
2023-01-22T06:00:56.711Z,75.25
2023-01-22T06:03:05.654Z,75.39
2023-01-22T06:05:18.819Z,75.33
2023-01-22T06:07:31.173Z,75.16
2023-01-22T06:09:33.895Z,75.35
2023-01-22T06:11:36.734Z,75.52
2023-01-22T06:13:40.253Z,75.36
2023-01-22T06:15:53.639Z,75.51
2023-01-22T06:18:16.427Z,75.49
2023-01-22T06:20:19.918Z,75.11
2023-01-22T06:22:22.897Z,75.27
2023-01-22T06:24:31.663Z,75.37
2023-01-22T06:26:36.094Z,76.02
2023-01-22T06:28:40.442Z,75.85
2023-01-22T06:30:43.294Z,75.65
2023-01-22T06:32:46.523Z,75.72
2023-01-22T06:34:49.795Z,75.91
2023-01-22T06:36:53.717Z,75.64
2023-01-22T06:38:56.618Z,75.53
2023-01-22T06:41:13.025Z,75.82
2023-01-22T06:43:17.262Z,75.89
2023-01-22T06:45:21.188Z,76.00
2023-01-22T06:47:29.783Z,75.15
2023-01-22T06:49:32.584Z,75.25
2023-01-22T06:51:36.319Z,75.29
2023-01-22T06:53:39.280Z,75.33
2023-01-22T06:55:42.128Z,75.68
2023-01-22T06:57:46.294Z,75.83
2023-01-22T06:59:49.139Z,75.22
2023-01-22T07:01:52.005Z,75.42
2023-01-22T07:03:55.872Z,75.85
2023-01-22T07:05:59.637Z,76.12
2023-01-22T07:08:03.043Z,75.47
2023-01-22T07:10:06.373Z,75.29
2023-01-22T07:12:09.408Z,74.89
2023-01-22T07:14:13.504Z,75.20
2023-01-22T07:16:16.423Z,75.21
2023-01-22T07:18:20.935Z,74.72
2023-01-22T07:20:24.643Z,74.83
2023-01-22T07:22:27.473Z,75.34
2023-01-22T07:24:30.228Z,74.99
2023-01-22T07:26:33.038Z,74.71
2023-01-22T07:28:35.794Z,74.42
2023-01-22T07:30:40.477Z,74.90
2023-01-22T07:32:43.415Z,74.83
2023-01-22T07:34:46.227Z,75.54
2023-01-22T07:36:48.996Z,75.14
2023-01-22T07:38:51.727Z,74.52
2023-01-22T07:40:55.586Z,75.08
2023-01-22T07:42:58.426Z,74.72
2023-01-22T07:45:01.184Z,74.99
2023-01-22T07:47:05.359Z,75.29
2023-01-22T07:49:08.188Z,75.42
2023-01-22T07:51:12.562Z,75.35
2023-01-22T07:53:15.356Z,74.67
2023-01-22T07:55:18.450Z,75.13
2023-01-22T07:57:21.213Z,75.62
2023-01-22T07:59:24.113Z,75.33
2023-01-22T08:01:26.898Z,74.86
2023-01-22T08:03:33.879Z,75.56
2023-01-22T08:05:37.061Z,75.69
2023-01-22T08:07:39.853Z,76.07
2023-01-22T08:09:42.731Z,75.24
2023-01-22T08:11:45.558Z,75.32
2023-01-22T08:13:48.416Z,76.21
2023-01-22T08:15:51.225Z,75.77
2023-01-22T08:17:53.966Z,75.48
2023-01-22T08:19:58.064Z,75.33
2023-01-22T08:22:00.939Z,75.48
2023-01-22T08:24:05.045Z,76.42
2023-01-22T08:26:07.828Z,76.14
2023-01-22T08:28:10.660Z,76.08
2023-01-22T08:30:15.769Z,76.03
2023-01-22T08:32:19.778Z,75.83
2023-01-22T08:34:23.229Z,75.92
2023-01-22T08:36:27.939Z,76.01
2023-01-22T08:38:30.885Z,75.59
2023-01-22T08:40:33.680Z,75.35
2023-01-22T08:42:36.402Z,76.02
2023-01-22T08:44:39.279Z,75.54
2023-01-22T08:46:42.156Z,75.67
2023-01-22T08:48:44.931Z,76.39
2023-01-22T08:50:47.803Z,75.35
2023-01-22T08:52:55.498Z,75.47
2023-01-22T08:54:58.347Z,75.08
2023-01-22T08:57:01.436Z,75.33
2023-01-22T08:59:06.542Z,75.33
2023-01-22T09:01:15.551Z,75.07
2023-01-22T09:03:18.393Z,74.11
2023-01-22T09:05:21.134Z,74.25
2023-01-22T09:07:23.936Z,74.46
2023-01-22T09:09:28.698Z,74.14
2023-01-22T09:11:32.151Z,74.50
2023-01-22T09:13:34.976Z,73.28
2023-01-22T09:15:38.349Z,72.78
2023-01-22T09:17:42.163Z,73.58
2023-01-22T09:19:44.958Z,73.28
2023-01-22T09:21:47.748Z,72.87
2023-01-22T09:23:50.527Z,73.10
2023-01-22T09:25:54.725Z,73.66
2023-01-22T09:28:00.867Z,73.68
2023-01-22T09:30:04.755Z,73.40
2023-01-22T09:32:07.575Z,72.79
2023-01-22T09:34:10.318Z,73.52
2023-01-22T09:36:15.303Z,72.88
2023-01-22T09:38:18.612Z,72.75
2023-01-22T09:40:25.909Z,72.96
2023-01-22T09:42:33.907Z,73.75
2023-01-22T09:44:40.384Z,73.54
2023-01-22T09:46:47.040Z,73.74
2023-01-22T09:48:54.819Z,72.92
2023-01-22T09:50:57.805Z,72.51
2023-01-22T09:53:04.714Z,72.26
2023-01-22T09:55:13.695Z,73.06
2023-01-22T09:57:30.784Z,73.22
2023-01-22T09:59:40.481Z,72.32
2023-01-22T10:01:44.836Z,72.77
2023-01-22T10:03:52.840Z,73.09
2023-01-22T10:06:00.261Z,72.54
2023-01-22T10:08:08.001Z,72.97
2023-01-22T10:10:20.202Z,73.79
2023-01-22T10:12:23.425Z,73.10
2023-01-22T10:14:29.625Z,72.28
2023-01-22T10:16:33.835Z,72.35
2023-01-22T10:18:43.127Z,72.28
2023-01-22T10:20:46.041Z,72.62
2023-01-22T10:22:49.253Z,72.90
2023-01-22T10:24:53.061Z,71.43
2023-01-22T10:26:58.816Z,71.91
2023-01-22T10:29:06.947Z,72.28
2023-01-22T10:31:23.949Z,72.56
2023-01-22T10:33:29.326Z,71.81
2023-01-22T10:35:33.107Z,71.35
2023-01-22T10:37:45.805Z,71.21
2023-01-22T10:39:50.512Z,71.87
2023-01-22T10:42:02.469Z,72.70
2023-01-22T10:44:10.286Z,72.04
2023-01-22T10:46:20.969Z,71.67
2023-01-22T10:48:24.419Z,72.08
2023-01-22T10:50:28.547Z,72.64
2023-01-22T10:52:36.587Z,72.87
2023-01-22T10:54:43.773Z,72.37
2023-01-22T10:56:46.929Z,72.22
2023-01-22T10:58:49.936Z,72.01
2023-01-22T11:01:02.776Z,72.40
2023-01-22T11:03:15.278Z,72.19
2023-01-22T11:05:19.903Z,72.15
2023-01-22T11:07:28.002Z,72.41
2023-01-22T11:09:38.512Z,72.00
2023-01-22T11:11:46.148Z,71.38
2023-01-22T11:13:55.241Z,71.33
2023-01-22T11:16:05.588Z,71.77
2023-01-22T11:18:12.075Z,71.32
2023-01-22T11:20:22.573Z,71.41
2023-01-22T11:22:33.691Z,71.87
2023-01-22T11:24:41.104Z,72.23
2023-01-22T11:27:20.590Z,71.72
2023-01-22T11:29:38.807Z,72.05
2023-01-22T11:31:53.542Z,71.78
2023-01-22T11:34:27.367Z,70.81
2023-01-22T11:36:36.925Z,70.06
2023-01-22T11:38:51.079Z,70.26
2023-01-22T11:41:18.848Z,70.71
2023-01-22T11:43:36.111Z,71.26
2023-01-22T11:45:54.444Z,71.19
2023-01-22T11:48:11.670Z,71.00
2023-01-22T11:50:26.321Z,71.21
2023-01-22T11:52:41.964Z,70.36
2023-01-22T11:55:04.905Z,71.28
2023-01-22T11:57:18.120Z,70.92
2023-01-22T11:59:33.644Z,70.51
2023-01-22T12:01:46.563Z,70.81
2023-01-22T12:04:09.157Z,71.30
2023-01-22T12:06:24.085Z,71.02
2023-01-22T12:08:44.507Z,71.01
2023-01-22T12:11:02.682Z,70.39
2023-01-22T12:13:17.119Z,70.39
2023-01-22T12:15:35.498Z,70.69
2023-01-22T12:17:47.567Z,71.34
2023-01-22T12:20:30.763Z,71.07
2023-01-22T12:22:38.886Z,70.57
2023-01-22T12:24:46.832Z,70.27
2023-01-22T12:26:58.512Z,70.51
2023-01-22T12:29:08.435Z,70.16
2023-01-22T12:31:14.917Z,69.96
2023-01-22T12:33:21.674Z,69.72
2023-01-22T12:35:27.214Z,69.88
2023-01-22T12:37:36.882Z,69.98
2023-01-22T12:39:46.169Z,70.35
2023-01-22T12:41:59.413Z,70.40
2023-01-22T12:44:11.984Z,70.00
2023-01-22T12:46:25.452Z,69.70
2023-01-22T12:48:36.473Z,70.39
2023-01-22T12:50:50.444Z,71.01
2023-01-22T12:53:00.916Z,71.07
2023-01-22T12:55:06.385Z,70.89
2023-01-22T12:57:28.516Z,70.57
2023-01-22T12:59:44.279Z,71.05
2023-01-22T13:01:47.327Z,71.43
2023-01-22T13:03:59.376Z,71.15
2023-01-22T13:06:03.993Z,71.03
2023-01-22T13:08:21.034Z,70.51
2023-01-22T13:10:29.279Z,70.78
2023-01-22T13:12:45.389Z,70.96
2023-01-22T13:14:50.654Z,70.46
2023-01-22T13:16:57.101Z,71.22
2023-01-22T13:19:01.180Z,70.81
2023-01-22T13:21:06.960Z,71.51
2023-01-22T13:23:14.015Z,70.67
2023-01-22T13:25:24.744Z,71.07
2023-01-22T13:27:30.408Z,71.21
2023-01-22T13:29:37.382Z,71.09
2023-01-22T13:31:40.290Z,71.06
2023-01-22T13:33:53.811Z,70.47
2023-01-22T13:35:57.618Z,70.82
2023-01-22T13:38:00.465Z,71.20
2023-01-22T13:40:13.137Z,71.03
2023-01-22T13:42:16.097Z,71.42
2023-01-22T13:44:20.997Z,71.92
2023-01-22T13:46:28.546Z,72.10
2023-01-22T13:48:31.695Z,71.31
2023-01-22T13:50:35.286Z,71.47
2023-01-22T13:52:38.117Z,71.51
2023-01-22T13:54:44.556Z,71.18
2023-01-22T13:56:47.582Z,70.59
2023-01-22T13:58:51.415Z,70.94
2023-01-22T14:00:54.260Z,71.31
2023-01-22T14:02:59.848Z,71.11
2023-01-22T14:05:03.556Z,71.66
2023-01-22T14:07:07.040Z,71.62
2023-01-22T14:09:09.885Z,71.09
2023-01-22T14:11:12.754Z,72.04
2023-01-22T14:13:15.795Z,72.51
2023-01-22T14:15:21.295Z,72.19
2023-01-22T14:17:26.851Z,72.10
2023-01-22T14:19:30.981Z,72.23
2023-01-22T14:21:35.103Z,72.13
2023-01-22T14:23:37.881Z,71.97
2023-01-22T14:25:43.808Z,72.33
2023-01-22T14:27:48.582Z,72.66
2023-01-22T14:29:53.259Z,71.19
2023-01-22T14:31:56.076Z,72.11
2023-01-22T14:33:58.913Z,71.89
2023-01-22T14:36:03.172Z,71.83
2023-01-22T14:38:05.951Z,72.52
2023-01-22T14:40:11.257Z,72.14
2023-01-22T14:42:14.071Z,72.02
2023-01-22T14:44:17.036Z,72.73
2023-01-22T14:46:19.850Z,72.31
2023-01-22T14:48:23.300Z,71.09
2023-01-22T14:50:26.107Z,71.03
2023-01-22T14:52:30.292Z,71.94
2023-01-22T14:54:33.108Z,71.88
2023-01-22T14:56:36.656Z,71.85
2023-01-22T14:58:39.407Z,72.70
2023-01-22T15:00:42.540Z,72.58
2023-01-22T15:02:45.489Z,71.56
2023-01-22T15:04:48.619Z,72.40
2023-01-22T15:06:51.370Z,72.02
2023-01-22T15:08:58.187Z,72.43
2023-01-22T15:11:01.085Z,72.38
2023-01-22T15:13:04.033Z,72.28
2023-01-22T15:15:08.955Z,72.82
2023-01-22T15:17:11.635Z,72.77
2023-01-22T15:19:14.582Z,72.50
2023-01-22T15:21:17.332Z,73.19
2023-01-22T15:23:20.400Z,72.33
2023-01-22T15:25:24.765Z,71.96
2023-01-22T15:27:27.663Z,72.41
2023-01-22T15:29:30.568Z,72.26
2023-01-22T15:31:34.048Z,72.12
2023-01-22T15:33:37.640Z,72.70
2023-01-22T15:35:40.495Z,72.30
2023-01-22T15:37:43.297Z,72.24
2023-01-22T15:39:46.085Z,72.53
2023-01-22T15:41:50.242Z,73.16
2023-01-22T15:43:55.485Z,72.44
2023-01-22T15:45:58.389Z,72.73
2023-01-22T15:48:01.328Z,72.55
2023-01-22T15:50:04.894Z,73.09
2023-01-22T15:52:07.736Z,72.93
2023-01-22T15:54:15.479Z,72.81
2023-01-22T15:56:19.150Z,72.85
2023-01-22T15:58:23.290Z,72.50
2023-01-22T16:00:27.595Z,73.08
2023-01-22T16:02:31.313Z,73.80
2023-01-22T16:04:34.204Z,72.77
2023-01-22T16:06:37.416Z,72.59
2023-01-22T16:08:40.719Z,73.28
2023-01-22T16:10:43.524Z,73.83
2023-01-22T16:12:46.290Z,73.23
2023-01-22T16:14:50.490Z,73.31
2023-01-22T16:16:53.301Z,73.02
2023-01-22T16:18:56.149Z,73.24
2023-01-22T16:21:01.597Z,72.94
2023-01-22T16:23:05.817Z,73.28
2023-01-22T16:25:09.267Z,73.83
2023-01-22T16:27:12.171Z,73.84
2023-01-22T16:29:14.975Z,73.21
2023-01-22T16:31:23.157Z,74.03
2023-01-22T16:33:29.512Z,72.66
2023-01-22T16:35:32.336Z,72.67
2023-01-22T16:37:35.134Z,72.74
2023-01-22T16:39:38.065Z,72.87
2023-01-22T16:41:41.079Z,72.38
2023-01-22T16:43:44.038Z,73.22
2023-01-22T16:45:46.841Z,74.31
2023-01-22T16:47:51.045Z,74.07
2023-01-22T16:49:53.859Z,72.50
2023-01-22T16:51:58.359Z,72.70
2023-01-22T16:54:01.246Z,73.16
2023-01-22T16:56:04.212Z,73.09
2023-01-22T16:58:06.954Z,72.85
2023-01-22T17:00:11.212Z,72.49
2023-01-22T17:02:16.013Z,72.63
2023-01-22T17:04:20.196Z,72.98
2023-01-22T17:06:26.046Z,73.14
2023-01-22T17:08:34.868Z,72.66
2023-01-22T17:10:37.961Z,72.92
2023-01-22T17:12:40.758Z,73.52
2023-01-22T17:14:45.992Z,72.85
2023-01-22T17:16:49.776Z,72.89
2023-01-22T17:18:54.811Z,72.64
2023-01-22T17:21:04.662Z,73.12
2023-01-22T17:23:08.586Z,72.90
2023-01-22T17:25:11.342Z,72.28
2023-01-22T17:27:18.298Z,72.86
2023-01-22T17:29:21.936Z,73.09
2023-01-22T17:31:26.821Z,72.95
2023-01-22T17:33:30.254Z,72.18
2023-01-22T17:35:33.080Z,72.28
2023-01-22T17:37:37.598Z,72.68
2023-01-22T17:39:40.911Z,73.02
2023-01-22T17:41:44.411Z,72.87
2023-01-22T17:43:48.948Z,73.22
2023-01-22T17:45:53.754Z,72.75
2023-01-22T17:47:56.396Z,72.96
2023-01-22T17:49:59.426Z,72.79
2023-01-22T17:52:03.054Z,73.01
2023-01-22T17:54:07.852Z,73.11
2023-01-22T17:56:12.494Z,72.79
2023-01-22T17:58:15.315Z,73.42
2023-01-22T18:00:19.492Z,73.79
2023-01-22T18:02:22.338Z,73.32
2023-01-22T18:04:25.202Z,73.69
2023-01-22T18:06:28.873Z,73.35
2023-01-22T18:08:32.880Z,72.61
2023-01-22T18:10:38.678Z,72.73
2023-01-22T18:12:42.194Z,73.21
2023-01-22T18:14:45.142Z,73.71
2023-01-22T18:16:48.273Z,73.84
2023-01-22T18:18:52.995Z,74.04
2023-01-22T18:20:55.844Z,74.07
2023-01-22T18:22:58.662Z,73.51
2023-01-22T18:25:01.715Z,73.40
2023-01-22T18:27:06.559Z,73.59
2023-01-22T18:29:09.844Z,72.77
2023-01-22T18:31:15.225Z,73.47
2023-01-22T18:33:18.896Z,73.96
2023-01-22T18:35:21.730Z,73.16
2023-01-22T18:37:24.537Z,73.50
2023-01-22T18:39:28.137Z,73.73
2023-01-22T18:41:31.087Z,73.65
2023-01-22T18:43:35.323Z,73.42
2023-01-22T18:45:40.166Z,73.95
2023-01-22T18:47:42.917Z,72.98
2023-01-22T18:49:45.646Z,73.36
2023-01-22T18:51:48.691Z,72.86
2023-01-22T18:53:51.480Z,73.88
2023-01-22T18:55:54.241Z,74.24
2023-01-22T18:58:03.529Z,73.78
2023-01-22T19:00:10.379Z,73.75
2023-01-22T19:02:16.046Z,73.41
2023-01-22T19:04:21.663Z,74.22
2023-01-22T19:06:26.615Z,73.95
2023-01-22T19:08:29.632Z,74.10
2023-01-22T19:10:32.509Z,74.14
2023-01-22T19:12:35.531Z,73.21
2023-01-22T19:14:38.329Z,73.07
2023-01-22T19:16:44.733Z,73.17
2023-01-22T19:18:47.782Z,72.83
2023-01-22T19:20:50.655Z,73.38
2023-01-22T19:22:54.060Z,73.04
2023-01-22T19:24:57.361Z,74.33
2023-01-22T19:27:00.127Z,74.50
2023-01-22T19:29:05.043Z,74.18
2023-01-22T19:31:15.512Z,74.20
2023-01-22T19:33:21.560Z,73.65
2023-01-22T19:35:24.384Z,74.58
2023-01-22T19:37:29.340Z,74.38
2023-01-22T19:39:32.034Z,73.83
2023-01-22T19:41:35.465Z,73.15
2023-01-22T19:43:38.476Z,73.32
2023-01-22T19:45:41.244Z,73.48
2023-01-22T19:47:44.132Z,73.22
2023-01-22T19:49:48.462Z,74.10
2023-01-22T19:51:51.421Z,73.29
2023-01-22T19:53:55.072Z,72.95
2023-01-22T19:55:58.660Z,73.25
2023-01-22T19:58:01.752Z,73.26
2023-01-22T20:00:06.391Z,73.24
2023-01-22T20:02:14.828Z,73.13
2023-01-22T20:04:20.569Z,73.21
2023-01-22T20:06:25.388Z,73.17
2023-01-22T20:08:29.684Z,73.76
2023-01-22T20:10:32.809Z,73.81
2023-01-22T20:12:35.641Z,74.06
2023-01-22T20:14:43.131Z,74.36
2023-01-22T20:16:46.135Z,73.75
2023-01-22T20:18:50.120Z,73.86
2023-01-22T20:20:53.618Z,73.62
2023-01-22T20:22:57.752Z,73.19
2023-01-22T20:25:00.507Z,73.15
2023-01-22T20:27:03.341Z,73.48
2023-01-22T20:29:06.296Z,73.95
2023-01-22T20:31:13.744Z,73.62
2023-01-22T20:33:16.669Z,73.95
2023-01-22T20:35:19.942Z,73.60
2023-01-22T20:37:23.287Z,72.99
2023-01-22T20:39:27.439Z,73.27
2023-01-22T20:41:32.194Z,73.56
2023-01-22T20:43:35.137Z,73.48
2023-01-22T20:45:37.950Z,73.30
2023-01-22T20:47:40.793Z,73.49
2023-01-22T20:49:43.758Z,73.59
2023-01-22T20:51:46.550Z,73.60
2023-01-22T20:53:50.881Z,73.78
2023-01-22T20:56:02.872Z,73.77
2023-01-22T20:58:05.805Z,74.33
2023-01-22T21:00:09.913Z,73.98
2023-01-22T21:02:12.889Z,74.27
2023-01-22T21:04:16.005Z,73.48
2023-01-22T21:06:21.395Z,74.49
2023-01-22T21:08:24.568Z,73.80
2023-01-22T21:10:27.390Z,73.46
2023-01-22T21:12:31.495Z,73.48
2023-01-22T21:14:34.282Z,73.71
2023-01-22T21:16:39.190Z,73.41
2023-01-22T21:18:44.241Z,73.59
2023-01-22T21:20:47.308Z,73.85
2023-01-22T21:22:50.219Z,74.14
2023-01-22T21:24:53.010Z,73.91
2023-01-22T21:26:56.016Z,74.11
2023-01-22T21:29:02.380Z,74.36
2023-01-22T21:31:06.759Z,74.27
2023-01-22T21:33:09.639Z,73.56
2023-01-22T21:35:12.429Z,73.79
2023-01-22T21:37:15.262Z,73.57
2023-01-22T21:39:21.127Z,73.34
2023-01-22T21:41:24.170Z,73.93
2023-01-22T21:43:49.734Z,72.99
2023-01-22T21:46:13.657Z,73.66
2023-01-22T21:48:16.422Z,73.82
2023-01-22T21:50:19.629Z,74.14
2023-01-22T21:52:22.599Z,72.94
2023-01-22T21:54:28.704Z,73.38
2023-01-22T21:56:31.513Z,73.37
2023-01-22T21:58:34.333Z,73.24
2023-01-22T22:00:37.095Z,72.73
2023-01-22T22:02:41.341Z,73.57
2023-01-22T22:04:44.085Z,73.34
2023-01-22T22:06:47.004Z,73.46
2023-01-22T22:08:49.833Z,73.32
2023-01-22T22:10:53.850Z,73.15
2023-01-22T22:12:56.669Z,73.05
2023-01-22T22:14:59.424Z,73.52
2023-01-22T22:17:02.489Z,74.11
2023-01-22T22:19:07.569Z,74.03
2023-01-22T22:21:10.899Z,73.37
2023-01-22T22:23:13.712Z,74.18
2023-01-22T22:25:16.779Z,74.17
2023-01-22T22:27:19.752Z,74.04
2023-01-22T22:29:22.500Z,73.77
2023-01-22T22:31:25.657Z,73.94
2023-01-22T22:33:28.524Z,74.78
2023-01-22T22:35:33.122Z,74.11
2023-01-22T22:37:36.918Z,74.74
2023-01-22T22:39:39.957Z,74.56
2023-01-22T22:41:42.816Z,74.52
2023-01-22T22:43:47.729Z,74.08
2023-01-22T22:45:50.419Z,73.91
2023-01-22T22:47:53.258Z,74.10
2023-01-22T22:49:56.069Z,74.33
2023-01-22T22:52:00.177Z,74.40
2023-01-22T22:54:05.097Z,74.06
2023-01-22T22:56:08.689Z,75.19
2023-01-22T22:58:11.446Z,75.32
2023-01-22T23:00:14.711Z,75.68
2023-01-22T23:02:17.610Z,75.08
2023-01-22T23:04:20.532Z,75.16
2023-01-22T23:06:27.580Z,75.34
2023-01-22T23:08:46.854Z,75.63
2023-01-22T23:10:49.719Z,75.87
2023-01-22T23:12:52.561Z,75.95
2023-01-22T23:14:55.351Z,76.41
2023-01-22T23:16:58.715Z,75.30
2023-01-22T23:19:03.648Z,75.73
2023-01-22T23:21:06.925Z,76.51
2023-01-22T23:23:09.813Z,76.24
2023-01-22T23:25:13.990Z,75.91
2023-01-22T23:27:16.794Z,76.29
2023-01-22T23:29:21.997Z,75.87
2023-01-22T23:31:26.370Z,76.14
2023-01-22T23:33:29.250Z,76.73
2023-01-22T23:35:32.096Z,76.36
2023-01-22T23:37:34.955Z,76.71
2023-01-22T23:39:38.124Z,76.43
2023-01-22T23:41:42.932Z,76.29
2023-01-22T23:43:46.443Z,75.83
2023-01-22T23:45:49.236Z,75.84
2023-01-22T23:47:52.735Z,76.07
2023-01-22T23:49:55.495Z,76.39
2023-01-22T23:51:58.305Z,76.52
2023-01-22T23:54:01.220Z,76.82
2023-01-22T23:56:07.423Z,76.64
2023-01-22T23:58:11.704Z,77.10
